createdAt,value
2022-09-26T00:01:32.665Z,14.30
2022-09-26T00:04:06.432Z,14.30
2022-09-26T00:06:33.669Z,14.20
2022-09-26T00:09:00.664Z,14.20
2022-09-26T00:11:31.951Z,14.20
2022-09-26T00:14:01.967Z,14.20
2022-09-26T00:16:29.302Z,14.20
2022-09-26T00:18:59.113Z,14.20
2022-09-26T00:21:28.103Z,14.20
2022-09-26T00:23:55.686Z,14.10
2022-09-26T00:26:24.911Z,14.10
2022-09-26T00:28:52.650Z,14.10
2022-09-26T00:31:23.600Z,14.10
2022-09-26T00:33:50.640Z,14.10
2022-09-26T00:36:17.767Z,14.10
2022-09-26T00:38:45.825Z,14.10
2022-09-26T00:41:13.726Z,14.10
2022-09-26T00:43:45.651Z,14.00
2022-09-26T00:46:48.323Z,14.00
2022-09-26T00:49:38.715Z,14.00
2022-09-26T00:52:14.036Z,14.00
2022-09-26T00:54:45.808Z,14.00
2022-09-26T00:57:23.550Z,14.00
2022-09-26T00:59:55.822Z,14.00
2022-09-26T01:02:26.193Z,13.90
2022-09-26T01:04:54.474Z,13.90
2022-09-26T01:07:24.211Z,13.90
2022-09-26T01:09:52.626Z,13.90
2022-09-26T01:12:21.308Z,13.90
2022-09-26T01:14:52.510Z,13.80
2022-09-26T01:17:20.749Z,13.80
2022-09-26T01:20:21.735Z,13.80
2022-09-26T01:22:57.986Z,13.80
2022-09-26T01:26:01.939Z,13.80
2022-09-26T01:28:43.955Z,13.80
2022-09-26T01:31:31.044Z,13.80
2022-09-26T01:34:14.355Z,13.80
2022-09-26T01:36:53.341Z,13.80
2022-09-26T01:39:45.259Z,13.80
2022-09-26T01:42:29.325Z,13.80
2022-09-26T01:45:04.517Z,13.80
2022-09-26T01:47:42.194Z,13.80
2022-09-26T01:50:22.721Z,13.80
2022-09-26T01:53:02.171Z,13.80
2022-09-26T01:55:47.296Z,13.80
2022-09-26T01:58:27.238Z,13.80
2022-09-26T02:00:58.580Z,13.80
2022-09-26T02:03:30.643Z,13.70
2022-09-26T02:06:09.528Z,13.70
2022-09-26T02:08:53.921Z,13.70
2022-09-26T02:11:22.671Z,13.70
2022-09-26T02:14:00.519Z,13.70
2022-09-26T02:16:42.181Z,13.70
2022-09-26T02:19:20.599Z,13.70
2022-09-26T02:21:48.750Z,13.70
2022-09-26T02:24:16.052Z,13.70
2022-09-26T02:26:43.350Z,13.70
2022-09-26T02:29:12.839Z,13.60
2022-09-26T02:31:50.294Z,13.60
2022-09-26T02:34:17.392Z,13.60
2022-09-26T02:36:44.608Z,13.60
2022-09-26T02:39:11.721Z,13.60
2022-09-26T02:42:07.970Z,13.60
2022-09-26T02:45:12.561Z,13.60
2022-09-26T02:48:14.280Z,13.50
2022-09-26T02:50:50.137Z,13.50
2022-09-26T02:53:35.254Z,13.50
2022-09-26T02:56:30.374Z,13.50
2022-09-26T02:59:21.714Z,13.50
2022-09-26T03:02:03.322Z,13.40
2022-09-26T03:04:36.107Z,13.40
2022-09-26T03:07:08.264Z,13.40
2022-09-26T03:09:37.224Z,13.40
2022-09-26T03:12:06.638Z,13.50
2022-09-26T03:14:36.697Z,13.40
2022-09-26T03:17:04.517Z,13.50
2022-09-26T03:19:48.618Z,13.40
2022-09-26T03:22:16.402Z,13.40
2022-09-26T03:24:44.884Z,13.40
2022-09-26T03:27:13.873Z,13.40
2022-09-26T03:29:41.299Z,13.40
2022-09-26T03:32:08.374Z,13.40
2022-09-26T03:34:35.500Z,13.40
2022-09-26T03:37:02.579Z,13.40
2022-09-26T03:39:29.651Z,13.40
2022-09-26T03:41:58.029Z,13.40
2022-09-26T03:44:25.616Z,13.40
2022-09-26T03:46:52.739Z,13.30
2022-09-26T03:49:19.968Z,13.30
2022-09-26T03:51:47.143Z,13.40
2022-09-26T03:54:14.527Z,13.30
2022-09-26T03:56:41.637Z,13.40
2022-09-26T03:59:09.300Z,13.30
2022-09-26T04:01:36.389Z,13.30
2022-09-26T04:04:03.504Z,13.40
2022-09-26T04:06:30.534Z,13.40
2022-09-26T04:08:57.578Z,13.40
2022-09-26T04:11:24.958Z,13.40
2022-09-26T04:13:53.929Z,13.40
2022-09-26T04:16:23.330Z,13.30
2022-09-26T04:18:55.467Z,13.30
2022-09-26T04:21:22.856Z,13.30
2022-09-26T04:23:50.653Z,13.30
2022-09-26T04:26:23.785Z,13.30
2022-09-26T04:28:55.493Z,13.40
2022-09-26T04:31:24.567Z,13.30
2022-09-26T04:33:51.837Z,13.30
2022-09-26T04:36:18.847Z,13.30
2022-09-26T04:38:45.836Z,13.30
2022-09-26T04:41:17.191Z,13.30
2022-09-26T04:43:44.370Z,13.30
2022-09-26T04:46:18.580Z,13.30
2022-09-26T04:48:48.216Z,13.30
2022-09-26T04:51:17.725Z,13.30
2022-09-26T04:53:44.745Z,13.30
2022-09-26T04:56:14.192Z,13.30
2022-09-26T04:58:43.841Z,13.30
2022-09-26T05:01:21.807Z,13.30
2022-09-26T05:03:49.077Z,13.40
2022-09-26T05:06:17.812Z,13.30
2022-09-26T05:08:49.531Z,13.30
2022-09-26T05:11:18.295Z,13.30
2022-09-26T05:13:47.224Z,13.30
2022-09-26T05:16:18.698Z,13.30
2022-09-26T05:18:50.133Z,13.30
2022-09-26T05:21:17.254Z,13.30
2022-09-26T05:24:02.843Z,13.40
2022-09-26T05:26:44.393Z,13.40
2022-09-26T05:29:12.328Z,13.40
2022-09-26T05:31:40.192Z,13.40
2022-09-26T05:34:14.253Z,13.40
2022-09-26T05:36:43.257Z,13.40
2022-09-26T05:39:29.178Z,13.40
2022-09-26T05:41:57.553Z,13.40
2022-09-26T05:44:24.567Z,13.40
2022-09-26T05:46:52.316Z,13.40
2022-09-26T05:49:19.417Z,13.40
2022-09-26T05:51:46.865Z,13.40
2022-09-26T05:54:14.143Z,13.40
2022-09-26T05:56:41.282Z,13.40
2022-09-26T05:59:08.466Z,13.40
2022-09-26T06:01:36.034Z,13.40
2022-09-26T06:04:03.131Z,13.40
2022-09-26T06:06:30.518Z,13.40
2022-09-26T06:08:58.118Z,13.40
2022-09-26T06:11:31.254Z,13.40
2022-09-26T06:14:00.903Z,13.40
2022-09-26T06:16:28.813Z,13.50
2022-09-26T06:18:56.230Z,13.50
2022-09-26T06:21:24.002Z,13.50
2022-09-26T06:23:51.718Z,13.50
2022-09-26T06:26:24.122Z,13.60
2022-09-26T06:28:59.466Z,13.60
2022-09-26T06:31:27.845Z,13.70
2022-09-26T06:33:55.454Z,13.60
2022-09-26T06:36:24.018Z,13.60
2022-09-26T06:38:52.345Z,13.60
2022-09-26T06:41:19.684Z,13.70
2022-09-26T06:43:48.065Z,13.80
2022-09-26T06:46:16.443Z,13.90
2022-09-26T06:48:43.871Z,14.10
2022-09-26T06:51:14.402Z,14.20
2022-09-26T06:53:43.281Z,14.40
2022-09-26T06:56:11.292Z,14.50
2022-09-26T06:58:39.618Z,14.60
2022-09-26T07:01:06.944Z,14.70
2022-09-26T07:03:34.378Z,15.00
2022-09-26T07:06:01.443Z,15.10
2022-09-26T07:08:57.291Z,15.30
2022-09-26T07:11:35.310Z,15.40
2022-09-26T07:14:02.719Z,15.50
2022-09-26T07:16:30.445Z,15.50
2022-09-26T07:18:58.075Z,15.60
2022-09-26T07:21:25.428Z,15.60
2022-09-26T07:23:57.723Z,15.80
2022-09-26T07:26:24.867Z,15.80
2022-09-26T07:28:54.702Z,15.80
2022-09-26T07:31:23.945Z,15.90
2022-09-26T07:33:51.485Z,15.90
2022-09-26T07:36:18.716Z,16.00
2022-09-26T07:38:49.596Z,16.10
2022-09-26T07:41:17.674Z,16.10
2022-09-26T07:46:51.665Z,16.00
2022-09-26T07:49:37.396Z,16.00
2022-09-26T07:52:04.429Z,16.00
2022-09-26T07:54:31.557Z,15.90
2022-09-26T07:56:59.041Z,15.90
2022-09-26T07:59:26.060Z,15.90
2022-09-26T08:01:54.683Z,15.80
2022-09-26T08:04:21.821Z,15.80
2022-09-26T08:06:50.256Z,15.80
2022-09-26T08:09:17.391Z,15.80
2022-09-26T08:11:45.239Z,15.80
2022-09-26T08:14:12.381Z,15.80
2022-09-26T08:16:42.111Z,15.90
2022-09-26T08:19:10.933Z,16.00
2022-09-26T08:21:38.015Z,16.20
2022-09-26T08:24:05.114Z,16.50
2022-09-26T08:26:32.166Z,16.60
2022-09-26T08:29:00.087Z,16.60
2022-09-26T08:31:28.595Z,16.70
2022-09-26T08:33:55.857Z,16.70
2022-09-26T08:36:23.444Z,16.70
2022-09-26T08:38:50.780Z,16.80
2022-09-26T08:41:44.557Z,16.70
2022-09-26T08:44:24.560Z,16.80
2022-09-26T08:47:02.198Z,16.80
2022-09-26T08:49:49.465Z,16.90
2022-09-26T08:52:48.453Z,17.00
2022-09-26T08:55:24.396Z,17.20
2022-09-26T08:57:59.107Z,17.30
2022-09-26T09:00:28.752Z,17.30
2022-09-26T09:03:21.425Z,17.30
2022-09-26T09:06:07.536Z,17.30
2022-09-26T09:08:44.515Z,17.30
2022-09-26T09:11:53.401Z,17.30
2022-09-26T09:14:35.874Z,17.30
2022-09-26T09:17:23.657Z,17.50
2022-09-26T09:20:06.232Z,17.50
2022-09-26T09:23:13.988Z,17.50
2022-09-26T09:29:10.366Z,18.00
2022-09-26T09:31:41.800Z,18.40
2022-09-26T09:34:27.293Z,18.60
2022-09-26T09:36:59.882Z,18.80
2022-09-26T09:39:37.385Z,18.80
2022-09-26T09:42:16.723Z,18.80
2022-09-26T09:45:28.723Z,19.00
2022-09-26T09:47:58.372Z,19.20
2022-09-26T09:51:05.717Z,19.30
2022-09-26T09:53:49.094Z,19.30
2022-09-26T09:56:33.569Z,19.20
2022-09-26T09:59:14.045Z,19.30
2022-09-26T10:01:44.923Z,19.30
2022-09-26T10:04:40.915Z,19.50
2022-09-26T10:07:08.393Z,19.60
2022-09-26T10:09:46.501Z,19.50
2022-09-26T10:12:15.084Z,19.40
2022-09-26T10:14:56.074Z,19.20
2022-09-26T10:17:24.544Z,19.40
2022-09-26T10:19:52.166Z,19.40
2022-09-26T10:22:27.392Z,19.40
2022-09-26T10:25:02.481Z,19.40
2022-09-26T10:27:37.329Z,19.50
2022-09-26T10:30:21.542Z,19.50
2022-09-26T10:32:56.773Z,19.50
2022-09-26T10:35:40.217Z,19.50
2022-09-26T10:38:19.255Z,19.40
2022-09-26T10:40:55.595Z,19.20
2022-09-26T10:43:38.188Z,19.00
2022-09-26T10:46:08.586Z,19.00
2022-09-26T10:48:57.342Z,18.90
2022-09-26T10:51:43.151Z,18.80
2022-09-26T10:54:17.168Z,18.70
2022-09-26T10:56:48.627Z,18.60
2022-09-26T10:59:18.482Z,18.50
2022-09-26T11:01:56.712Z,18.50
2022-09-26T11:04:46.506Z,18.40
2022-09-26T11:07:29.669Z,18.40
2022-09-26T11:10:06.975Z,18.30
2022-09-26T11:12:39.815Z,18.30
2022-09-26T11:15:18.661Z,18.20
2022-09-26T11:17:48.752Z,18.10
2022-09-26T11:20:33.810Z,18.10
2022-09-26T11:23:36.139Z,18.00
2022-09-26T11:26:18.998Z,18.00
2022-09-26T11:29:02.337Z,17.90
2022-09-26T11:31:42.133Z,17.90
2022-09-26T11:34:22.066Z,17.90
2022-09-26T11:40:38.299Z,17.90
2022-09-26T11:43:25.409Z,18.00
2022-09-26T11:46:09.011Z,18.10
2022-09-26T11:49:04.016Z,18.20
2022-09-26T11:51:58.121Z,18.20
2022-09-26T11:54:55.565Z,18.20
2022-09-26T11:57:49.743Z,18.30
2022-09-26T12:00:28.261Z,18.70
2022-09-26T12:03:14.233Z,19.30
2022-09-26T12:06:02.721Z,19.60
2022-09-26T12:08:30.584Z,19.80
2022-09-26T12:11:17.681Z,20.00
2022-09-26T12:14:10.564Z,20.00
2022-09-26T12:17:00.041Z,20.20
2022-09-26T12:19:39.468Z,20.20
2022-09-26T12:22:28.815Z,20.20
2022-09-26T12:25:23.170Z,20.20
2022-09-26T12:28:10.547Z,20.30
2022-09-26T12:30:49.181Z,20.70
2022-09-26T12:33:46.639Z,21.10
2022-09-26T12:36:26.089Z,21.40
2022-09-26T12:39:30.837Z,21.60
2022-09-26T12:42:19.773Z,21.90
2022-09-26T12:45:19.860Z,22.10
2022-09-26T12:48:15.297Z,22.30
2022-09-26T12:51:28.810Z,21.90
2022-09-26T12:54:21.605Z,21.60
2022-09-26T12:57:12.565Z,22.00
2022-09-26T13:00:11.174Z,22.10
2022-09-26T13:02:38.316Z,21.90
2022-09-26T13:05:28.712Z,22.00
2022-09-26T13:08:05.373Z,21.90
2022-09-26T13:10:56.827Z,21.90
2022-09-26T13:13:54.350Z,21.90
2022-09-26T13:16:43.056Z,21.70
2022-09-26T13:19:28.259Z,21.50
2022-09-26T13:22:02.639Z,21.30
2022-09-26T13:24:50.407Z,21.20
2022-09-26T13:27:23.383Z,21.20
2022-09-26T13:30:15.821Z,21.10
2022-09-26T13:33:28.164Z,21.00
2022-09-26T13:35:57.331Z,21.00
2022-09-26T13:38:53.661Z,21.10
2022-09-26T13:41:35.471Z,20.90
2022-09-26T13:47:05.214Z,20.40
2022-09-26T13:50:24.417Z,20.20
2022-09-26T13:53:24.477Z,20.00
2022-09-26T13:56:30.546Z,19.70
2022-09-26T13:59:12.964Z,19.50
2022-09-26T14:02:18.551Z,19.30
2022-09-26T14:04:50.573Z,19.20
2022-09-26T14:07:47.873Z,19.30
2022-09-26T14:10:41.824Z,19.40
2022-09-26T14:13:18.576Z,19.70
2022-09-26T14:15:58.861Z,20.10
2022-09-26T14:19:27.995Z,20.40
2022-09-26T14:22:16.646Z,20.70
2022-09-26T14:24:44.727Z,20.80
2022-09-26T14:27:11.929Z,20.90
2022-09-26T14:29:39.338Z,20.80
2022-09-26T14:32:16.100Z,20.80
2022-09-26T14:35:01.540Z,20.80
2022-09-26T14:37:54.983Z,20.80
2022-09-26T14:40:28.745Z,20.80
2022-09-26T14:43:00.223Z,20.90
2022-09-26T14:45:44.870Z,21.00
2022-09-26T14:48:12.113Z,21.10
2022-09-26T14:51:24.166Z,21.10
2022-09-26T14:53:54.970Z,21.20
2022-09-26T14:56:29.434Z,21.30
2022-09-26T14:59:24.466Z,21.10
2022-09-26T15:01:53.573Z,21.00
2022-09-26T15:04:24.365Z,20.90
2022-09-26T15:06:57.402Z,20.90
2022-09-26T15:09:27.673Z,20.90
2022-09-26T15:12:14.264Z,20.80
2022-09-26T15:14:52.633Z,20.80
2022-09-26T15:17:31.806Z,20.70
2022-09-26T15:20:02.365Z,20.60
2022-09-26T15:22:30.917Z,20.60
2022-09-26T15:25:33.629Z,20.50
2022-09-26T15:28:01.661Z,20.40
2022-09-26T15:30:42.110Z,20.20
2022-09-26T15:33:18.037Z,20.10
2022-09-26T15:35:55.169Z,20.10
2022-09-26T15:38:24.933Z,20.00
2022-09-26T15:41:05.190Z,19.90
2022-09-26T15:43:35.832Z,19.80
2022-09-26T15:46:08.998Z,19.70
2022-09-26T15:48:44.246Z,19.60
2022-09-26T15:51:16.681Z,19.50
2022-09-26T15:53:48.490Z,19.40
2022-09-26T15:56:36.776Z,19.20
2022-09-26T15:59:28.283Z,19.10
2022-09-26T16:01:55.920Z,18.90
2022-09-26T16:04:29.061Z,18.80
2022-09-26T16:07:20.897Z,18.70
2022-09-26T16:09:51.312Z,18.60
2022-09-26T16:12:22.565Z,18.40
2022-09-26T16:15:08.137Z,18.30
2022-09-26T16:17:49.238Z,18.20
2022-09-26T16:20:16.475Z,18.10
2022-09-26T16:22:49.541Z,17.90
2022-09-26T16:25:23.206Z,17.80
2022-09-26T16:28:01.791Z,17.80
2022-09-26T16:30:31.587Z,17.60
2022-09-26T16:33:08.158Z,17.60
2022-09-26T16:35:37.351Z,17.50
2022-09-26T16:38:05.938Z,17.40
2022-09-26T16:40:35.262Z,17.30
2022-09-26T16:43:27.382Z,17.20
2022-09-26T16:46:15.122Z,17.00
2022-09-26T16:48:54.021Z,16.90
2022-09-26T16:51:30.142Z,16.80
2022-09-26T16:54:09.628Z,16.70
2022-09-26T16:56:41.564Z,16.60
2022-09-26T16:59:24.642Z,16.40
2022-09-26T17:01:58.279Z,16.30
2022-09-26T17:04:34.626Z,16.20
2022-09-26T17:07:15.626Z,16.20
2022-09-26T17:09:44.378Z,16.10
2022-09-26T17:12:21.528Z,16.00
2022-09-26T17:14:55.508Z,15.90
2022-09-26T17:17:25.876Z,15.80
2022-09-26T17:19:59.468Z,15.80
2022-09-26T17:22:28.571Z,15.70
2022-09-26T17:24:55.710Z,15.60
2022-09-26T17:27:29.069Z,15.60
2022-09-26T17:30:00.180Z,15.50
2022-09-26T17:32:37.234Z,15.50
2022-09-26T17:35:12.706Z,15.40
2022-09-26T17:37:40.018Z,15.40
2022-09-26T17:40:19.870Z,15.30
2022-09-26T17:42:47.608Z,15.30
2022-09-26T17:45:14.848Z,15.20
2022-09-26T17:47:41.858Z,15.20
2022-09-26T17:50:17.554Z,15.20
2022-09-26T17:52:44.783Z,15.20
2022-09-26T17:55:12.698Z,15.10
2022-09-26T17:57:41.835Z,15.10
2022-09-26T18:00:13.342Z,15.00
2022-09-26T18:02:44.850Z,15.00
2022-09-26T18:05:30.496Z,15.00
2022-09-26T18:08:01.967Z,15.10
2022-09-26T18:10:34.261Z,15.00
2022-09-26T18:13:12.765Z,15.10
2022-09-26T18:15:41.658Z,15.10
2022-09-26T18:18:17.924Z,15.10
2022-09-26T18:20:49.405Z,15.10
2022-09-26T18:23:26.786Z,15.10
2022-09-26T18:25:58.425Z,15.10
2022-09-26T18:28:26.050Z,15.10
2022-09-26T18:30:58.040Z,15.10
2022-09-26T18:33:29.252Z,15.20
2022-09-26T18:35:57.411Z,15.10
2022-09-26T18:38:24.352Z,15.10
2022-09-26T18:40:55.949Z,15.20
2022-09-26T18:43:26.303Z,15.10
2022-09-26T18:45:53.938Z,15.10
2022-09-26T18:48:32.030Z,15.10
2022-09-26T18:51:00.660Z,15.10
2022-09-26T18:53:37.700Z,15.10
2022-09-26T18:56:25.814Z,15.10
2022-09-26T18:58:53.767Z,15.10
2022-09-26T19:01:27.367Z,15.10
2022-09-26T19:03:59.195Z,15.10
2022-09-26T19:06:32.559Z,15.10
2022-09-26T19:09:02.946Z,15.10
2022-09-26T19:11:33.184Z,15.10
2022-09-26T19:14:24.903Z,15.10
2022-09-26T19:16:53.010Z,15.10
2022-09-26T19:19:20.652Z,15.10
2022-09-26T19:21:55.318Z,15.00
2022-09-26T19:24:34.759Z,15.00
2022-09-26T19:27:20.233Z,15.00
2022-09-26T19:30:08.339Z,15.00
2022-09-26T19:32:44.881Z,15.00
2022-09-26T19:35:32.459Z,15.00
2022-09-26T19:38:01.023Z,15.00
2022-09-26T19:40:28.732Z,15.00
2022-09-26T19:42:57.657Z,14.90
2022-09-26T19:45:26.275Z,14.90
2022-09-26T19:47:55.926Z,14.90
2022-09-26T19:50:25.918Z,14.90
2022-09-26T19:52:55.733Z,14.80
2022-09-26T19:55:26.472Z,14.80
2022-09-26T19:57:54.933Z,14.70
2022-09-26T20:00:22.045Z,14.70
2022-09-26T20:02:52.060Z,14.70
2022-09-26T20:05:20.766Z,14.70
2022-09-26T20:07:47.865Z,14.60
2022-09-26T20:10:18.023Z,14.60
2022-09-26T20:12:46.051Z,14.50
2022-09-26T20:15:14.729Z,14.50
2022-09-26T20:17:44.696Z,14.50
2022-09-26T20:20:24.063Z,14.40
2022-09-26T20:22:52.483Z,14.40
2022-09-26T20:25:26.736Z,14.30
2022-09-26T20:27:55.241Z,14.20
2022-09-26T20:30:41.778Z,14.20
2022-09-26T20:33:10.235Z,14.20
2022-09-26T20:35:44.313Z,14.10
2022-09-26T20:38:28.383Z,14.10
2022-09-26T20:41:13.474Z,14.10
2022-09-26T20:43:41.751Z,14.00
2022-09-26T20:46:11.059Z,14.00
2022-09-26T20:48:43.271Z,14.00
2022-09-26T20:51:23.655Z,14.00
2022-09-26T20:53:50.761Z,14.00
2022-09-26T20:56:21.380Z,13.90
2022-09-26T20:58:49.022Z,13.90
2022-09-26T21:01:18.127Z,13.80
2022-09-26T21:03:51.025Z,13.80
2022-09-26T21:06:21.033Z,13.70
2022-09-26T21:08:48.717Z,13.70
2022-09-26T21:11:18.884Z,13.70
2022-09-26T21:13:46.609Z,13.60
2022-09-26T21:16:16.373Z,13.60
2022-09-26T21:18:46.309Z,13.50
2022-09-26T21:21:33.590Z,13.50
2022-09-26T21:24:01.002Z,13.50
2022-09-26T21:26:30.365Z,13.40
2022-09-26T21:28:58.245Z,13.40
2022-09-26T21:31:35.678Z,13.30
2022-09-26T21:34:04.031Z,13.30
2022-09-26T21:36:35.565Z,13.30
2022-09-26T21:39:03.417Z,13.30
2022-09-26T21:41:30.559Z,13.20
2022-09-26T21:44:06.182Z,13.10
2022-09-26T21:46:33.298Z,13.10
2022-09-26T21:49:00.359Z,13.00
2022-09-26T21:51:29.224Z,12.90
2022-09-26T21:54:06.397Z,12.90
2022-09-26T21:56:43.295Z,12.90
2022-09-26T21:59:10.348Z,12.90
2022-09-26T22:01:37.551Z,12.90
2022-09-26T22:04:06.117Z,12.90
2022-09-26T22:06:33.795Z,12.80
2022-09-26T22:09:00.853Z,12.80
2022-09-26T22:11:27.868Z,12.70
2022-09-26T22:13:56.755Z,12.70
2022-09-26T22:16:23.791Z,12.60
2022-09-26T22:18:50.978Z,12.60
2022-09-26T22:21:19.444Z,12.60
2022-09-26T22:23:49.777Z,12.60
2022-09-26T22:26:17.424Z,12.50
2022-09-26T22:28:45.398Z,12.50
2022-09-26T22:31:14.472Z,12.50
2022-09-26T22:33:42.251Z,12.50
2022-09-26T22:36:09.312Z,12.40
2022-09-26T22:38:37.107Z,12.40
2022-09-26T22:41:06.664Z,12.40
2022-09-26T22:43:34.624Z,12.50
2022-09-26T22:46:09.614Z,12.40
2022-09-26T22:48:38.641Z,12.40
2022-09-26T22:51:06.537Z,12.30
2022-09-26T22:53:35.711Z,12.30
2022-09-26T22:56:05.511Z,12.30
2022-09-26T22:58:42.594Z,12.30
2022-09-26T23:01:15.797Z,12.30
2022-09-26T23:03:42.925Z,12.30
2022-09-26T23:06:10.897Z,12.30
2022-09-26T23:08:38.335Z,12.30
2022-09-26T23:11:07.565Z,12.20
2022-09-26T23:13:35.760Z,12.20
2022-09-26T23:16:08.380Z,12.20
2022-09-26T23:18:36.894Z,12.20
2022-09-26T23:21:18.084Z,12.10
2022-09-26T23:23:47.553Z,12.10
2022-09-26T23:26:26.485Z,12.10
2022-09-26T23:28:56.487Z,12.00
2022-09-26T23:31:25.400Z,11.90
2022-09-26T23:33:53.336Z,11.90
2022-09-26T23:36:20.765Z,11.90
2022-09-26T23:38:48.068Z,11.90
2022-09-26T23:41:15.348Z,11.80
2022-09-26T23:43:42.739Z,11.80
2022-09-26T23:46:10.630Z,11.80
2022-09-26T23:48:38.027Z,11.80
2022-09-26T23:51:05.456Z,11.80
2022-09-26T23:53:33.209Z,11.80
2022-09-26T23:56:05.264Z,11.80
2022-09-26T23:58:32.898Z,11.80
